createdAt,value
2022-11-16T00:01:00.771Z,15.90
2022-11-16T00:03:28.285Z,15.68
2022-11-16T00:05:57.400Z,15.88
2022-11-16T00:08:25.256Z,16.45
2022-11-16T00:10:53.260Z,16.97
2022-11-16T00:13:21.057Z,16.65
2022-11-16T00:15:57.035Z,17.55
2022-11-16T00:18:24.943Z,17.73
2022-11-16T00:20:52.504Z,19.30
2022-11-16T00:23:20.205Z,17.73
2022-11-16T00:25:47.759Z,18.27
2022-11-16T00:28:15.437Z,18.03
2022-11-16T00:30:43.023Z,18.13
2022-11-16T00:33:15.500Z,18.70
2022-11-16T00:35:43.320Z,17.10
2022-11-16T00:38:10.905Z,17.52
2022-11-16T00:40:38.497Z,16.98
2022-11-16T00:43:06.093Z,16.90
2022-11-16T00:45:33.612Z,16.88
2022-11-16T00:48:01.160Z,16.65
2022-11-16T00:50:30.059Z,16.42
2022-11-16T00:52:57.593Z,17.20
2022-11-16T00:55:25.121Z,16.75
2022-11-16T00:57:52.685Z,17.02
2022-11-16T01:00:20.819Z,16.35
2022-11-16T01:02:48.378Z,16.00
2022-11-16T01:05:15.898Z,15.60
2022-11-16T01:07:44.789Z,16.52
2022-11-16T01:10:14.152Z,16.63
2022-11-16T01:12:41.132Z,15.57
2022-11-16T01:15:10.124Z,15.88
2022-11-16T01:17:37.845Z,16.10
2022-11-16T01:20:08.445Z,15.15
2022-11-16T01:22:36.625Z,15.38
2022-11-16T01:25:06.217Z,15.50
2022-11-16T01:27:33.818Z,17.00
2022-11-16T01:30:01.452Z,15.63
2022-11-16T01:32:29.015Z,15.35
2022-11-16T01:34:56.566Z,14.73
2022-11-16T01:37:24.086Z,15.15
2022-11-16T01:39:51.908Z,15.35
2022-11-16T01:42:21.976Z,15.03
2022-11-16T01:44:58.410Z,15.60
2022-11-16T01:47:26.243Z,14.93
2022-11-16T01:49:58.327Z,15.17
2022-11-16T01:52:28.100Z,14.95
2022-11-16T01:54:55.859Z,15.77
2022-11-16T01:57:28.143Z,15.63
2022-11-16T01:59:59.022Z,15.88
2022-11-16T02:02:26.604Z,16.25
2022-11-16T02:04:55.048Z,16.60
2022-11-16T02:07:31.890Z,16.08
2022-11-16T02:10:10.207Z,16.30
2022-11-16T02:13:04.059Z,16.53
2022-11-16T02:15:35.595Z,17.85
2022-11-16T02:18:17.197Z,18.10
2022-11-16T02:21:05.129Z,16.80
2022-11-16T02:24:06.455Z,17.07
2022-11-16T02:26:48.493Z,12.20
2022-11-16T02:29:21.793Z,12.32
2022-11-16T02:31:58.336Z,9.25
2022-11-16T02:34:28.239Z,3.33
2022-11-16T02:36:56.811Z,3.00
2022-11-16T02:39:28.020Z,2.00
2022-11-16T02:41:56.907Z,2.05
2022-11-16T02:44:29.806Z,2.03
2022-11-16T02:47:00.464Z,1.70
2022-11-16T02:49:29.043Z,1.63
2022-11-16T02:51:57.257Z,1.30
2022-11-16T02:54:25.011Z,1.35
2022-11-16T02:56:55.579Z,1.20
2022-11-16T02:59:25.077Z,1.10
2022-11-16T03:02:00.314Z,1.25
2022-11-16T03:04:30.877Z,1.10
2022-11-16T03:06:59.008Z,1.20
2022-11-16T03:09:29.382Z,1.13
2022-11-16T03:12:02.414Z,1.20
2022-11-16T03:14:32.946Z,1.30
2022-11-16T03:17:03.522Z,1.10
2022-11-16T03:19:35.284Z,1.63
2022-11-16T03:22:07.618Z,1.60
2022-11-16T03:24:35.228Z,1.45
2022-11-16T03:27:12.229Z,1.90
2022-11-16T03:29:42.345Z,1.50
2022-11-16T03:32:16.451Z,1.50
2022-11-16T03:34:47.193Z,1.40
2022-11-16T03:37:15.144Z,1.50
2022-11-16T03:39:42.830Z,1.70
2022-11-16T03:42:14.010Z,1.70
2022-11-16T03:44:43.229Z,1.83
2022-11-16T03:47:12.804Z,1.70
2022-11-16T03:49:42.226Z,1.98
2022-11-16T03:52:09.797Z,2.35
2022-11-16T03:54:37.341Z,2.50
2022-11-16T03:57:04.929Z,2.70
2022-11-16T03:59:32.457Z,2.50
2022-11-16T04:02:00.012Z,2.40
2022-11-16T04:04:46.345Z,2.80
2022-11-16T04:07:31.680Z,2.10
2022-11-16T04:10:17.081Z,2.25
2022-11-16T04:13:03.004Z,2.15
2022-11-16T04:15:56.612Z,2.20
2022-11-16T04:18:42.374Z,2.10
2022-11-16T04:21:36.499Z,2.20
2022-11-16T04:24:13.056Z,2.30
2022-11-16T04:26:58.735Z,2.38
2022-11-16T04:29:26.548Z,2.22
2022-11-16T04:32:11.033Z,2.85
2022-11-16T04:34:56.360Z,2.80
2022-11-16T04:37:42.917Z,4.07
2022-11-16T04:40:11.801Z,5.05
2022-11-16T04:42:38.384Z,5.53
2022-11-16T04:45:24.347Z,6.22
2022-11-16T04:47:52.386Z,6.80
2022-11-16T04:50:20.735Z,7.30
2022-11-16T04:52:49.675Z,7.40
2022-11-16T04:55:17.469Z,7.68
2022-11-16T04:57:45.043Z,8.43
2022-11-16T05:00:13.906Z,9.00
2022-11-16T05:02:41.504Z,10.18
2022-11-16T05:05:10.073Z,10.40
2022-11-16T05:07:37.700Z,11.80
2022-11-16T05:10:08.084Z,12.15
2022-11-16T05:12:35.840Z,12.95
2022-11-16T05:15:03.583Z,13.70
2022-11-16T05:17:31.145Z,14.43
2022-11-16T05:20:16.279Z,15.18
2022-11-16T05:22:43.902Z,15.15
2022-11-16T05:25:12.814Z,15.85
2022-11-16T05:27:40.432Z,16.40
2022-11-16T05:30:09.084Z,16.55
2022-11-16T05:32:36.635Z,16.10
2022-11-16T05:35:04.427Z,16.10
2022-11-16T05:37:31.960Z,16.08
2022-11-16T05:39:59.508Z,15.90
2022-11-16T05:42:28.412Z,16.17
2022-11-16T05:44:55.932Z,16.15
2022-11-16T05:47:23.497Z,15.80
2022-11-16T05:49:51.097Z,16.50
2022-11-16T05:52:18.675Z,16.67
2022-11-16T05:54:46.233Z,11.65
2022-11-16T05:57:15.273Z,11.23
2022-11-16T05:59:44.203Z,11.20
2022-11-16T06:02:11.804Z,11.82
2022-11-16T06:04:39.592Z,11.65
2022-11-16T06:07:07.141Z,11.82
2022-11-16T06:09:34.702Z,10.73
2022-11-16T06:12:02.231Z,12.30
2022-11-16T06:14:29.794Z,12.23
2022-11-16T06:16:58.656Z,12.85
2022-11-16T06:19:32.041Z,18.27
2022-11-16T06:21:59.948Z,20.52
2022-11-16T06:24:27.532Z,19.63
2022-11-16T06:26:55.037Z,20.48
2022-11-16T06:29:22.798Z,19.33
2022-11-16T06:31:50.394Z,21.23
2022-11-16T06:34:19.352Z,20.88
2022-11-16T06:36:46.956Z,20.05
2022-11-16T06:39:14.563Z,20.15
2022-11-16T06:41:42.064Z,20.58
2022-11-16T06:44:09.823Z,20.35
2022-11-16T06:46:37.387Z,20.75
2022-11-16T06:49:04.940Z,19.77
2022-11-16T06:51:33.833Z,19.48
2022-11-16T06:54:01.372Z,18.70
2022-11-16T06:56:29.158Z,18.83
2022-11-16T06:58:56.913Z,19.40
2022-11-16T07:01:24.547Z,17.83
2022-11-16T07:03:52.231Z,18.33
2022-11-16T07:06:19.777Z,18.20
2022-11-16T07:08:48.694Z,18.50
2022-11-16T07:11:16.229Z,18.25
2022-11-16T07:13:43.813Z,17.23
2022-11-16T07:16:12.192Z,17.95
2022-11-16T07:18:41.123Z,16.88
2022-11-16T07:21:09.364Z,17.48
2022-11-16T07:23:37.017Z,17.15
2022-11-16T07:26:07.422Z,16.45
2022-11-16T07:28:35.541Z,16.13
2022-11-16T07:31:03.804Z,16.25
2022-11-16T07:33:31.434Z,16.33
2022-11-16T07:36:02.125Z,15.60
2022-11-16T07:38:30.124Z,15.50
2022-11-16T07:41:00.825Z,16.15
2022-11-16T07:43:31.643Z,14.80
2022-11-16T07:46:30.489Z,14.82
2022-11-16T07:48:50.880Z,13.35
2022-11-16T07:51:19.375Z,13.02
2022-11-16T07:53:47.395Z,13.45
2022-11-16T07:56:14.922Z,12.93
2022-11-16T07:58:43.840Z,12.18
2022-11-16T08:01:13.093Z,12.20
2022-11-16T08:03:41.757Z,11.85
2022-11-16T08:06:12.862Z,11.20
2022-11-16T08:08:40.434Z,10.90
2022-11-16T08:11:10.120Z,10.27
2022-11-16T08:13:40.377Z,10.37
2022-11-16T08:16:12.866Z,10.40
2022-11-16T08:18:41.692Z,10.00
2022-11-16T08:21:10.352Z,10.73
2022-11-16T08:23:37.904Z,9.80
2022-11-16T08:26:07.479Z,10.25
2022-11-16T08:28:35.383Z,9.70
2022-11-16T08:31:10.052Z,8.98
2022-11-16T08:33:37.625Z,8.60
2022-11-16T08:36:11.001Z,9.02
2022-11-16T08:38:41.315Z,8.45
2022-11-16T08:41:09.129Z,8.75
2022-11-16T08:43:39.387Z,9.35
2022-11-16T08:46:08.807Z,8.87
2022-11-16T08:48:37.119Z,9.02
2022-11-16T08:51:21.359Z,9.30
2022-11-16T08:53:49.616Z,8.50
2022-11-16T08:56:18.844Z,8.43
2022-11-16T08:58:47.039Z,8.52
2022-11-16T09:01:18.031Z,8.00
2022-11-16T09:03:46.548Z,8.20
2022-11-16T09:06:14.442Z,7.43
2022-11-16T09:08:43.216Z,7.68
2022-11-16T09:11:12.482Z,7.03
2022-11-16T09:13:40.124Z,6.85
2022-11-16T09:16:08.198Z,6.10
2022-11-16T09:18:37.628Z,5.68
2022-11-16T09:21:05.676Z,5.53
2022-11-16T09:23:33.200Z,5.22
2022-11-16T09:26:02.936Z,5.07
2022-11-16T09:28:30.706Z,4.45
2022-11-16T09:31:01.599Z,4.10
2022-11-16T09:33:30.145Z,4.20
2022-11-16T09:36:02.353Z,4.60
2022-11-16T09:38:40.522Z,4.45
2022-11-16T09:41:27.571Z,4.13
2022-11-16T09:43:59.986Z,3.55
2022-11-16T09:46:30.768Z,3.85
2022-11-16T09:48:59.958Z,3.70
2022-11-16T09:51:30.813Z,3.78
2022-11-16T09:54:01.676Z,3.60
2022-11-16T09:56:30.340Z,3.50
2022-11-16T09:59:03.989Z,3.50
2022-11-16T10:01:34.347Z,3.53
2022-11-16T10:04:06.458Z,4.03
2022-11-16T10:06:43.787Z,3.75
2022-11-16T10:09:12.504Z,3.40
2022-11-16T10:11:48.103Z,3.60
2022-11-16T10:14:29.986Z,3.30
2022-11-16T10:17:02.803Z,3.70
2022-11-16T10:19:35.823Z,3.72
2022-11-16T10:22:11.504Z,4.10
2022-11-16T10:24:50.896Z,4.20
2022-11-16T10:27:45.684Z,4.40
2022-11-16T10:30:16.027Z,4.10
2022-11-16T10:32:48.853Z,4.60
2022-11-16T10:35:19.798Z,4.37
2022-11-16T10:37:51.274Z,4.43
2022-11-16T10:40:24.696Z,4.70
2022-11-16T10:43:05.381Z,5.05
2022-11-16T10:45:39.055Z,5.45
2022-11-16T10:48:13.824Z,5.28
2022-11-16T10:50:44.057Z,5.35
2022-11-16T10:53:15.812Z,5.68
2022-11-16T10:55:43.530Z,6.47
2022-11-16T10:58:11.264Z,6.97
2022-11-16T11:00:42.189Z,7.05
2022-11-16T11:03:11.858Z,7.20
2022-11-16T11:08:25.929Z,7.18
2022-11-16T11:11:01.598Z,6.90
2022-11-16T11:13:28.180Z,7.55
2022-11-16T11:16:15.042Z,7.65
2022-11-16T11:18:42.965Z,7.47
2022-11-16T11:21:16.197Z,6.95
2022-11-16T11:23:46.616Z,6.70
2022-11-16T11:26:35.849Z,7.53
2022-11-16T11:29:09.794Z,6.95
2022-11-16T11:31:41.890Z,5.78
2022-11-16T11:34:16.761Z,5.43
2022-11-16T11:36:47.655Z,5.53
2022-11-16T11:39:30.991Z,5.00
2022-11-16T11:42:04.728Z,5.15
2022-11-16T11:44:34.016Z,4.07
2022-11-16T11:50:04.111Z,3.08
2022-11-16T13:36:43.111Z,2.45
2022-11-16T13:39:12.997Z,2.45
2022-11-16T13:41:45.584Z,2.40
2022-11-16T13:47:01.049Z,2.30
2022-11-16T13:49:32.028Z,2.30
